Time;durP1;ratioP1;P1;durP2;ratioP2;P2;SDS_P1;SDS_P2;PMS_P1;PMS_P2;Temp;Humidity;BMP_temperature;BMP_pressure;BME280_temperature;BME280_humidity;BME280_pressure;Samples;Min_cycle;Max_cycle;Signal;HPM_P1;HPM_P2
2022/05/17 00:02:52;;;;;;;29.73;3.92;;;8.70;99.90;;;;;;6248077;28;20219;-67
2022/05/17 00:05:58;;;;;;;22.50;2.80;;;8.60;99.90;;;;;;6246358;28;20204;-67
2022/05/17 00:09:04;;;;;;;40.78;4.63;;;8.70;99.90;;;;;;6247358;28;20236;-68
2022/05/17 00:12:13;;;;;;;35.50;3.90;;;8.70;99.90;;;;;;6251056;28;20244;-67
2022/05/17 00:15:18;;;;;;;32.22;3.30;;;8.70;99.90;;;;;;6250745;28;20239;-67
2022/05/17 00:18:26;;;;;;;29.85;3.30;;;8.70;99.90;;;;;;6250370;28;20697;-68
2022/05/17 00:21:35;;;;;;;49.72;4.00;;;8.60;99.90;;;;;;6250659;28;20293;-67
2022/05/17 00:24:40;;;;;;;29.92;3.22;;;8.50;99.90;;;;;;6250453;28;20691;-68
2022/05/17 00:27:46;;;;;;;20.50;3.03;;;8.50;99.90;;;;;;6250545;28;20209;-67
2022/05/17 00:30:52;;;;;;;37.50;3.30;;;8.40;99.90;;;;;;6249516;28;20208;-67
2022/05/17 00:33:57;;;;;;;38.85;2.88;;;8.40;99.90;;;;;;6250329;28;20238;-67
2022/05/17 00:37:05;;;;;;;35.25;3.17;;;8.50;99.90;;;;;;6249559;28;20280;-68
2022/05/17 00:40:14;;;;;;;35.92;3.28;;;8.40;99.90;;;;;;6250162;28;20237;-67
2022/05/17 00:44:42;;;;;;;10.05;2.08;;;8.40;99.90;;;;;;6249236;28;20232;-68
2022/05/17 00:47:01;;;;;;;25.98;2.50;;;8.50;99.90;;;;;;6249260;28;20219;-67
2022/05/17 00:50:11;;;;;;;11.80;1.85;;;8.50;99.90;;;;;;6250332;28;20587;-67
2022/05/17 00:53:22;;;;;;;19.38;2.30;;;8.40;99.90;;;;;;6250118;28;20243;-68
2022/05/17 00:56:28;;;;;;;25.55;2.50;;;8.40;99.90;;;;;;6249056;28;20215;-67
2022/05/17 00:59:34;;;;;;;17.33;2.05;;;8.40;99.90;;;;;;6250382;28;20247;-68
2022/05/17 01:02:40;;;;;;;24.42;2.08;;;8.40;99.90;;;;;;6250722;28;20204;-68
2022/05/17 01:05:54;;;;;;;9.80;1.70;;;8.50;99.90;;;;;;6250206;28;20215;-67
2022/05/17 01:09:01;;;;;;;7.47;1.63;;;8.40;99.90;;;;;;6249749;28;20229;-66
2022/05/17 01:12:08;;;;;;;5.28;1.50;;;8.30;99.90;;;;;;6249959;28;20247;-68
2022/05/17 01:15:13;;;;;;;18.20;2.45;;;8.30;99.90;;;;;;6249753;28;20232;-67
2022/05/17 01:18:19;;;;;;;14.20;2.25;;;8.20;99.90;;;;;;6249630;28;20233;-68
2022/05/17 01:21:26;;;;;;;18.33;1.83;;;8.30;99.90;;;;;;6248863;28;20212;-67
2022/05/17 01:24:32;;;;;;;10.40;2.40;;;8.30;99.90;;;;;;6249273;28;20235;-67
2022/05/17 01:27:43;;;;;;;7.95;1.50;;;8.20;99.90;;;;;;6249078;28;20231;-68
2022/05/17 01:30:49;;;;;;;17.35;2.15;;;8.30;99.90;;;;;;6249488;28;20221;-67
2022/05/17 01:33:55;;;;;;;9.32;1.67;;;8.20;99.90;;;;;;6249102;28;20232;-67
2022/05/17 01:37:01;;;;;;;4.47;1.27;;;8.10;99.90;;;;;;6249724;28;20196;-67
2022/05/17 01:40:10;;;;;;;3.50;1.40;;;8.10;99.90;;;;;;6249148;28;20232;-66
2022/05/17 01:43:16;;;;;;;1.15;1.00;;;8.10;99.90;;;;;;6249322;28;20232;-68
2022/05/17 01:46:22;;;;;;;2.05;1.15;;;8.20;99.90;;;;;;6249131;28;20535;-67
2022/05/17 01:49:27;;;;;;;6.03;1.35;;;8.20;99.90;;;;;;6249250;28;20232;-67
2022/05/17 01:52:34;;;;;;;5.22;1.40;;;8.10;99.90;;;;;;6249007;28;20228;-67
2022/05/17 01:55:40;;;;;;;2.95;1.20;;;8.10;99.90;;;;;;6247887;28;20205;-67
2022/05/17 01:58:46;;;;;;;1.20;1.20;;;8.10;99.90;;;;;;6248767;28;20239;-67
2022/05/17 02:01:51;;;;;;;3.38;1.58;;;8.10;99.90;;;;;;6249074;28;20211;-67
2022/05/17 02:04:56;;;;;;;4.57;1.48;;;8.10;99.90;;;;;;6248437;28;20228;-66
2022/05/17 02:08:03;;;;;;;1.10;1.10;;;8.10;99.90;;;;;;6248191;28;20224;-66
2022/05/17 02:11:08;;;;;;;1.77;1.42;;;8.20;99.90;;;;;;6245070;28;20233;-66
2022/05/17 02:14:14;;;;;;;1.92;1.45;;;8.20;99.90;;;;;;6223364;28;20271;-67
2022/05/17 02:17:19;;;;;;;12.75;2.00;;;8.10;99.90;;;;;;6224494;28;20205;-67
2022/05/17 02:20:25;;;;;;;2.97;1.90;;;8.10;99.90;;;;;;6223485;28;20241;-67
2022/05/17 02:23:35;;;;;;;16.73;2.38;;;7.90;99.90;;;;;;6223247;28;20720;-67
2022/05/17 02:26:40;;;;;;;11.80;2.17;;;7.80;99.90;;;;;;6223505;28;20211;-67
2022/05/17 02:29:46;;;;;;;7.82;1.60;;;7.80;99.90;;;;;;6223412;28;20233;-67
2022/05/17 02:32:51;;;;;;;5.35;1.98;;;7.80;99.90;;;;;;6222904;28;20225;-66
2022/05/17 02:35:56;;;;;;;2.00;1.33;;;7.80;99.90;;;;;;6222324;28;20214;-68
2022/05/17 02:39:04;;;;;;;1.33;1.30;;;7.90;99.90;;;;;;6223358;28;20233;-67
2022/05/17 02:42:10;;;;;;;2.67;1.50;;;7.90;99.90;;;;;;6224225;28;20558;-66
2022/05/17 02:45:15;;;;;;;1.35;1.35;;;7.90;99.90;;;;;;6223054;28;20244;-67
2022/05/17 02:48:21;;;;;;;1.25;1.20;;;7.90;99.90;;;;;;6223219;28;20556;-67
2022/05/17 02:51:26;;;;;;;1.75;1.30;;;7.90;99.90;;;;;;6223388;28;20210;-67
2022/05/17 02:54:35;;;;;;;5.82;1.27;;;7.90;99.90;;;;;;6222347;28;20241;-67
2022/05/17 02:57:40;;;;;;;1.77;1.10;;;7.90;99.90;;;;;;6221995;28;20575;-67
2022/05/17 03:00:45;;;;;;;0.98;0.98;;;7.90;99.90;;;;;;6222793;28;20205;-67
2022/05/17 03:03:51;;;;;;;1.00;1.00;;;8.00;99.90;;;;;;6219452;28;20229;-66
2022/05/17 03:06:57;;;;;;;1.00;1.00;;;8.00;99.90;;;;;;6222535;28;20594;-67
2022/05/17 03:10:05;;;;;;;2.35;1.25;;;7.90;99.30;;;;;;6222596;28;20237;-68
2022/05/17 03:13:12;;;;;;;0.90;0.90;;;8.00;99.20;;;;;;6221521;28;20672;-67
2022/05/17 03:16:19;;;;;;;1.38;1.27;;;7.90;99.10;;;;;;6223326;28;20208;-67
2022/05/17 03:19:25;;;;;;;1.00;1.00;;;7.90;98.40;;;;;;6222062;28;20236;-66
2022/05/17 03:22:30;;;;;;;1.27;1.20;;;7.90;98.30;;;;;;6222115;28;20229;-67
2022/05/17 03:25:37;;;;;;;3.20;1.00;;;8.00;98.20;;;;;;6222663;28;20223;-67
2022/05/17 03:28:43;;;;;;;1.00;1.00;;;7.90;98.00;;;;;;6220785;28;20252;-67
2022/05/17 03:31:48;;;;;;;1.30;1.30;;;7.90;97.60;;;;;;6222248;28;20216;-67
2022/05/17 03:34:53;;;;;;;2.38;1.60;;;7.90;97.40;;;;;;6222511;28;20240;-68
2022/05/17 03:37:59;;;;;;;1.52;1.38;;;7.90;97.30;;;;;;6222393;28;20244;-67
2022/05/17 03:41:06;;;;;;;2.33;1.20;;;7.90;97.50;;;;;;6222794;28;20205;-66
2022/05/17 03:44:12;;;;;;;1.35;1.25;;;7.90;97.50;;;;;;6223794;28;20236;-67
2022/05/17 03:47:17;;;;;;;3.50;1.35;;;7.80;97.40;;;;;;6227405;28;20205;-68
2022/05/17 03:50:23;;;;;;;1.85;1.33;;;7.80;97.40;;;;;;6228004;28;20299;-67
2022/05/17 03:53:29;;;;;;;1.30;1.20;;;7.80;97.60;;;;;;6226783;28;20684;-67
2022/05/17 03:56:35;;;;;;;3.65;1.30;;;7.70;97.50;;;;;;6227325;28;20209;-67
2022/05/17 03:59:40;;;;;;;1.27;1.17;;;7.80;97.90;;;;;;6227237;28;20244;-68
2022/05/17 04:02:46;;;;;;;1.50;1.40;;;7.80;97.90;;;;;;6226901;28;20533;-67
2022/05/17 04:05:51;;;;;;;1.13;1.13;;;7.90;98.10;;;;;;6227651;28;20220;-68
2022/05/17 04:08:57;;;;;;;1.38;1.30;;;7.80;97.90;;;;;;6226873;28;20722;-67
2022/05/17 04:12:05;;;;;;;1.10;1.10;;;7.80;98.00;;;;;;6238076;28;20308;-67
2022/05/17 04:15:14;;;;;;;1.15;1.00;;;7.80;98.10;;;;;;6250319;28;20232;-67
2022/05/17 04:18:22;;;;;;;1.50;1.30;;;7.90;98.10;;;;;;6251097;28;20592;-67
2022/05/17 04:21:27;;;;;;;1.80;1.27;;;7.90;98.30;;;;;;6233901;28;20215;-67
2022/05/17 04:24:33;;;;;;;1.45;1.42;;;7.90;98.40;;;;;;6251153;28;20316;-67
2022/05/17 04:27:40;;;;;;;1.55;1.30;;;7.80;98.50;;;;;;6250186;28;20239;-67
2022/05/17 04:30:46;;;;;;;1.58;1.50;;;7.90;98.60;;;;;;6251402;28;20201;-67
2022/05/17 04:33:51;;;;;;;1.40;1.05;;;7.90;98.80;;;;;;6251132;28;20229;-66
2022/05/17 04:36:56;;;;;;;1.35;1.10;;;7.90;98.90;;;;;;6251459;28;20589;-67
2022/05/17 04:40:02;;;;;;;1.20;1.20;;;7.90;98.70;;;;;;6251496;28;20228;-67
2022/05/17 04:43:09;;;;;;;1.35;1.10;;;8.00;99.00;;;;;;6250722;28;20264;-67
2022/05/17 04:46:14;;;;;;;1.10;1.10;;;7.90;98.90;;;;;;6250919;28;20565;-67
2022/05/17 04:49:20;;;;;;;1.10;1.10;;;8.00;99.00;;;;;;6250600;28;20229;-65
2022/05/17 04:52:26;;;;;;;1.25;1.17;;;8.10;98.90;;;;;;6250519;28;20236;-66
2022/05/17 04:55:31;;;;;;;1.30;1.30;;;8.00;99.10;;;;;;6251999;28;20225;-67
2022/05/17 04:58:38;;;;;;;1.00;1.00;;;8.00;99.30;;;;;;6252822;28;20229;-68
2022/05/17 05:01:43;;;;;;;1.65;1.30;;;8.00;99.30;;;;;;6263328;28;20211;-66
2022/05/17 05:04:49;;;;;;;1.85;1.20;;;8.20;99.60;;;;;;6271698;28;20314;-67
2022/05/17 05:07:54;;;;;;;0.90;0.90;;;8.10;99.50;;;;;;6263527;28;20242;-67
2022/05/17 05:11:04;;;;;;;1.52;1.30;;;8.10;99.80;;;;;;6247516;28;20651;-67
2022/05/17 05:14:11;;;;;;;1.65;1.02;;;8.10;99.90;;;;;;6225716;28;20635;-69
2022/05/17 05:17:16;;;;;;;1.20;1.10;;;8.30;99.90;;;;;;6225358;28;20695;-67
2022/05/17 05:20:22;;;;;;;1.42;1.33;;;8.30;99.90;;;;;;6225825;28;20209;-67
2022/05/17 05:23:28;;;;;;;1.05;1.05;;;8.40;99.90;;;;;;6225024;28;20260;-67
2022/05/17 05:26:35;;;;;;;1.30;1.30;;;8.30;99.90;;;;;;6225252;28;20664;-66
2022/05/17 05:29:42;;;;;;;2.13;1.20;;;8.20;99.90;;;;;;6224720;28;20225;-67
2022/05/17 05:32:48;;;;;;;1.38;1.10;;;8.30;99.90;;;;;;6224504;28;20233;-67
2022/05/17 05:35:54;;;;;;;1.30;1.20;;;8.40;99.90;;;;;;6225397;28;20231;-66
2022/05/17 05:38:59;;;;;;;1.50;1.40;;;8.70;99.90;;;;;;6224704;28;20229;-67
2022/05/17 05:42:06;;;;;;;1.33;1.23;;;8.90;99.90;;;;;;6225626;28;20527;-67
2022/05/17 05:45:13;;;;;;;1.60;0.98;;;9.00;99.90;;;;;;6224443;28;20213;-67
2022/05/17 05:48:20;;;;;;;1.00;1.00;;;9.20;99.90;;;;;;6224288;28;20233;-67
2022/05/17 05:51:26;;;;;;;1.08;1.08;;;9.40;99.60;;;;;;6225008;28;20213;-68
2022/05/17 05:54:32;;;;;;;0.80;0.80;;;9.40;98.70;;;;;;6228546;28;20309;-68
2022/05/17 05:57:38;;;;;;;1.10;1.08;;;9.40;98.90;;;;;;6243017;28;20229;-67
2022/05/17 06:00:45;;;;;;;1.33;1.23;;;9.50;98.40;;;;;;6228572;28;20233;-69
2022/05/17 06:03:50;;;;;;;0.90;0.90;;;9.50;98.10;;;;;;6224447;28;20255;-68
2022/05/17 06:06:57;;;;;;;1.67;1.20;;;9.50;98.10;;;;;;6224498;28;20209;-67
2022/05/17 06:10:03;;;;;;;0.93;0.93;;;9.70;98.40;;;;;;6224534;28;20240;-68
2022/05/17 06:13:08;;;;;;;0.73;0.73;;;9.90;96.90;;;;;;6243847;28;20266;-67
2022/05/17 06:16:16;;;;;;;1.98;0.85;;;10.10;96.20;;;;;;6248348;28;20672;-67
2022/05/17 06:19:23;;;;;;;2.92;1.00;;;10.20;95.70;;;;;;6247893;28;20316;-67
2022/05/17 06:22:29;;;;;;;0.80;0.80;;;10.40;95.50;;;;;;6248218;28;20232;-67
2022/05/17 06:25:34;;;;;;;1.23;0.88;;;10.50;94.90;;;;;;6247844;28;20294;-66
2022/05/17 06:28:40;;;;;;;1.65;0.80;;;10.60;94.70;;;;;;6248135;28;20236;-66
2022/05/17 06:31:49;;;;;;;0.85;0.85;;;10.70;94.20;;;;;;6248592;28;20212;-67
2022/05/17 06:34:54;;;;;;;0.80;0.80;;;10.60;93.10;;;;;;6248174;28;20238;-68
2022/05/17 06:38:00;;;;;;;1.73;0.70;;;10.60;93.40;;;;;;6247489;28;20281;-67
2022/05/17 06:41:05;;;;;;;1.10;0.70;;;10.70;93.40;;;;;;6248134;28;20304;-67
2022/05/17 06:44:11;;;;;;;1.75;0.70;;;10.60;92.60;;;;;;6247515;28;20232;-67
2022/05/17 06:47:18;;;;;;;0.80;0.80;;;10.60;92.50;;;;;;6230344;28;20207;-67
2022/05/17 06:50:23;;;;;;;3.10;0.77;;;10.70;92.10;;;;;;6247767;28;20212;-68
2022/05/17 06:53:30;;;;;;;0.95;0.73;;;10.80;92.10;;;;;;6247574;28;20579;-68
2022/05/17 06:56:36;;;;;;;2.83;0.90;;;10.80;91.40;;;;;;6247893;28;20224;-67
2022/05/17 06:59:43;;;;;;;0.88;0.88;;;10.90;91.90;;;;;;6247637;28;20697;-67
2022/05/17 07:02:49;;;;;;;2.58;0.90;;;10.90;91.50;;;;;;6247491;28;20243;-66
2022/05/17 07:05:55;;;;;;;0.70;0.70;;;11.00;91.10;;;;;;6252921;28;20204;-67
2022/05/17 07:09:00;;;;;;;0.70;0.70;;;11.10;90.80;;;;;;6252944;28;20658;-66
2022/05/17 07:15:46;;;;;;;1.23;1.23;;;11.10;88.60;;;;;;6148222;29;20215;-68
2022/05/17 07:18:53;;;;;;;2.95;1.42;;;11.10;88.20;;;;;;6146362;28;20239;-68
2022/05/17 07:22:18;;;;;;;6.40;5.75;;;11.20;88.40;;;;;;6247406;28;20616;-67
2022/05/17 07:25:24;;;;;;;8.65;7.70;;;11.30;88.60;;;;;;6247635;28;20213;-68
2022/05/17 07:28:29;;;;;;;2.28;2.28;;;11.30;88.50;;;;;;6246943;28;20555;-68
2022/05/17 07:31:35;;;;;;;5.68;1.25;;;11.30;88.60;;;;;;6248133;28;20223;-66
2022/05/17 07:34:42;;;;;;;1.55;1.55;;;11.30;89.00;;;;;;6247066;28;20242;-67
2022/05/17 07:37:47;;;;;;;2.13;1.20;;;11.40;85.40;;;;;;6245327;28;20596;-67
2022/05/17 07:40:53;;;;;;;2.05;1.00;;;11.60;87.40;;;;;;6246968;28;20208;-67
2022/05/17 07:43:58;;;;;;;1.00;1.00;;;11.70;87.20;;;;;;6246757;28;20232;-67
2022/05/17 07:47:05;;;;;;;1.15;1.08;;;11.90;85.90;;;;;;6247763;28;20235;-67
2022/05/17 07:50:19;;;;;;;1.00;1.00;;;11.90;86.00;;;;;;6246680;28;20574;-67
2022/05/17 07:53:24;;;;;;;3.90;3.70;;;11.90;84.10;;;;;;6246290;28;20228;-67
2022/05/17 07:56:29;;;;;;;1.20;1.20;;;12.20;82.80;;;;;;6247178;28;20215;-68
2022/05/17 07:59:35;;;;;;;1.02;1.02;;;12.30;82.50;;;;;;6245327;28;20239;-66
2022/05/17 08:02:42;;;;;;;2.85;2.65;;;12.30;75.90;;;;;;6246784;28;20228;-66
2022/05/17 08:05:51;;;;;;;3.92;2.15;;;12.30;71.10;;;;;;6246166;28;20217;-67
2022/05/17 08:08:56;;;;;;;1.17;1.17;;;12.40;72.90;;;;;;6246504;28;20593;-67
2022/05/17 08:12:02;;;;;;;1.00;1.00;;;12.50;73.50;;;;;;6246850;28;20224;-66
2022/05/17 08:15:09;;;;;;;1.20;1.20;;;12.50;69.70;;;;;;6246641;28;20664;-68
2022/05/17 08:18:19;;;;;;;2.38;1.20;;;12.30;66.60;;;;;;6246202;28;20247;-68
2022/05/17 08:21:31;;;;;;;1.17;1.10;;;12.30;65.10;;;;;;6247342;28;20236;-67
2022/05/17 08:27:57;;;;;;;2.00;2.00;;;12.20;64.10;;;;;;6245205;28;20237;-67
2022/05/17 08:31:03;;;;;;;1.00;1.00;;;12.10;63.10;;;;;;6249471;28;20569;-67
2022/05/17 08:34:08;;;;;;;1.38;1.13;;;12.10;63.90;;;;;;6251339;28;20248;-67
2022/05/17 08:37:15;;;;;;;1.45;1.00;;;12.10;60.40;;;;;;6252486;28;20209;-67
2022/05/17 08:40:23;;;;;;;1.20;1.20;;;12.10;57.30;;;;;;6252663;28;20219;-67
2022/05/17 08:43:35;;;;;;;1.27;1.20;;;11.90;57.70;;;;;;6251425;28;20231;-68
2022/05/17 08:46:59;;;;;;;1.60;1.50;;;12.00;59.80;;;;;;6234386;28;20219;-68
2022/05/17 08:50:28;;;;;;;1.20;1.20;;;12.00;59.90;;;;;;6250967;28;20216;-67
2022/05/17 08:53:35;;;;;;;1.40;1.40;;;12.00;60.80;;;;;;6252113;28;20239;-67
2022/05/17 08:56:45;;;;;;;3.00;1.25;;;11.90;60.60;;;;;;6251916;28;20223;-67
2022/05/17 08:59:50;;;;;;;0.90;0.90;;;11.90;61.40;;;;;;6251498;28;20229;-68
2022/05/17 09:03:01;;;;;;;2.17;1.23;;;11.90;62.70;;;;;;6250902;28;20354;-67
2022/05/17 09:06:17;;;;;;;22.02;11.80;;;11.80;64.30;;;;;;6250701;28;20597;-67
2022/05/17 09:09:29;;;;;;;1.98;1.98;;;11.80;62.20;;;;;;6250118;28;20233;-67
2022/05/17 09:12:44;;;;;;;2.00;1.95;;;11.80;59.80;;;;;;6249341;28;20235;-66
2022/05/17 09:15:52;;;;;;;1.10;1.10;;;11.80;59.80;;;;;;6251012;28;20238;-67
2022/05/17 09:19:00;;;;;;;3.50;1.73;;;11.90;59.60;;;;;;6249766;28;20290;-67
2022/05/17 09:22:06;;;;;;;1.83;1.40;;;11.90;59.20;;;;;;6250137;28;20215;-67
2022/05/17 09:25:22;;;;;;;1.25;1.02;;;11.90;59.10;;;;;;6249278;28;20213;-69
2022/05/17 09:28:30;;;;;;;1.65;1.00;;;12.00;58.60;;;;;;6249350;28;20243;-67
2022/05/17 09:31:37;;;;;;;1.10;1.10;;;12.10;58.30;;;;;;6249307;28;20204;-67
2022/05/17 09:34:45;;;;;;;1.50;1.40;;;12.20;57.90;;;;;;6249207;28;20274;-67
2022/05/17 09:37:52;;;;;;;4.05;1.60;;;12.10;57.20;;;;;;6249627;28;20233;-68
2022/05/17 09:40:59;;;;;;;1.30;1.30;;;12.00;57.00;;;;;;6248674;28;20234;-67
2022/05/17 09:44:09;;;;;;;2.15;1.55;;;11.90;57.10;;;;;;6248405;28;20224;-69
2022/05/17 09:47:27;;;;;;;1.73;1.60;;;11.90;56.80;;;;;;6249148;28;20208;-70
2022/05/17 09:54:05;;;;;;;1.30;1.30;;;12.20;54.60;;;;;;6248930;28;20679;-68
2022/05/17 09:57:21;;;;;;;2.00;1.40;;;12.30;54.30;;;;;;6248710;28;20663;-70
2022/05/17 10:00:34;;;;;;;1.42;1.33;;;12.30;54.90;;;;;;6249266;28;20640;-67
2022/05/17 10:03:58;;;;;;;2.63;1.80;;;12.20;55.70;;;;;;6248253;28;20225;-67
2022/05/17 10:07:20;;;;;;;1.75;1.63;;;12.10;56.10;;;;;;6248461;28;20545;-68
2022/05/17 10:10:36;;;;;;;1.10;1.10;;;12.00;56.30;;;;;;6249909;28;20201;-68
2022/05/17 10:14:10;;;;;;;2.20;1.35;;;11.90;57.50;;;;;;6231686;28;20251;-67
2022/05/17 10:17:26;;;;;;;1.85;1.70;;;11.90;56.90;;;;;;6253308;28;20244;-67
2022/05/17 10:20:36;;;;;;;1.40;1.40;;;12.00;56.80;;;;;;6258145;28;20225;-66
2022/05/17 10:23:46;;;;;;;1.60;1.60;;;12.10;56.30;;;;;;6265119;28;20308;-67
2022/05/17 10:27:12;;;;;;;1.50;1.40;;;12.10;55.90;;;;;;6264952;28;20208;-65
2022/05/17 10:30:24;;;;;;;1.25;1.25;;;12.20;56.10;;;;;;6248157;28;20235;-67
2022/05/17 10:33:35;;;;;;;1.25;1.25;;;12.00;54.00;;;;;;6247622;28;20244;-67
2022/05/17 10:36:45;;;;;;;1.20;1.20;;;12.10;55.30;;;;;;6247953;28;20207;-67
2022/05/17 10:39:55;;;;;;;1.10;1.10;;;12.30;55.40;;;;;;6247688;28;20312;-67
2022/05/17 10:43:02;;;;;;;1.15;1.15;;;12.20;53.20;;;;;;6247629;28;20228;-67
2022/05/17 10:46:15;;;;;;;1.15;1.02;;;12.30;53.80;;;;;;6248052;28;20592;-67
2022/05/17 10:49:27;;;;;;;2.10;1.10;;;12.40;54.40;;;;;;6246913;28;20691;-67
2022/05/17 10:52:47;;;;;;;1.75;1.38;;;12.30;54.10;;;;;;6247147;28;20225;-67
2022/05/17 10:56:07;;;;;;;2.80;1.48;;;12.30;54.60;;;;;;6248149;28;20559;-67
2022/05/17 10:59:28;;;;;;;3.58;1.40;;;12.30;55.60;;;;;;6247160;28;20312;-67
2022/05/17 11:02:57;;;;;;;1.85;1.30;;;12.30;54.60;;;;;;6247023;28;20240;-68
2022/05/17 11:06:20;;;;;;;1.42;1.30;;;12.20;55.20;;;;;;6247838;28;20211;-67
2022/05/17 11:09:31;;;;;;;1.13;1.13;;;12.20;55.30;;;;;;6246987;28;20241;-66
2022/05/17 11:12:43;;;;;;;1.52;1.25;;;12.40;54.80;;;;;;6247509;28;20244;-68
2022/05/17 11:15:52;;;;;;;1.23;1.23;;;12.50;54.80;;;;;;6247508;28;20568;-67
2022/05/17 11:19:04;;;;;;;1.15;1.15;;;12.40;54.30;;;;;;6246954;28;20229;-68
2022/05/17 11:22:17;;;;;;;1.10;1.10;;;12.50;53.60;;;;;;6246447;28;20566;-67
2022/05/17 11:25:50;;;;;;;0.90;0.90;;;12.60;52.60;;;;;;6247510;28;20211;-67
2022/05/17 11:29:10;;;;;;;1.83;1.00;;;12.80;52.80;;;;;;6246755;28;20694;-67
2022/05/17 11:32:25;;;;;;;13.63;9.48;;;12.80;53.40;;;;;;6246651;28;20335;-68
2022/05/17 11:35:50;;;;;;;1.90;1.90;;;12.70;52.90;;;;;;6246929;28;20601;-66
2022/05/17 11:38:55;;;;;;;1.38;1.30;;;12.50;53.20;;;;;;6246335;28;20236;-69
2022/05/17 11:42:08;;;;;;;1.58;1.58;;;12.30;54.60;;;;;;6246999;28;20224;-68
2022/05/17 11:45:24;;;;;;;2.40;2.30;;;12.40;55.10;;;;;;6243992;28;20205;-67
2022/05/17 11:48:46;;;;;;;1.40;1.30;;;12.50;54.40;;;;;;6246584;28;20230;-69
2022/05/17 11:52:30;;;;;;;3.95;1.27;;;12.60;53.00;;;;;;6247071;28;20208;-67
2022/05/17 11:55:39;;;;;;;1.30;1.30;;;12.70;51.60;;;;;;6246227;28;20213;-68
2022/05/17 11:58:48;;;;;;;1.17;1.10;;;12.80;52.50;;;;;;6246495;28;20699;-68
2022/05/17 12:02:05;;;;;;;1.48;1.40;;;12.90;52.50;;;;;;6246089;28;20221;-68
2022/05/17 12:05:12;;;;;;;1.08;1.08;;;13.00;52.90;;;;;;6247061;28;20231;-67
2022/05/17 12:08:35;;;;;;;1.00;1.00;;;12.90;54.20;;;;;;6251207;28;20239;-69
2022/05/17 12:11:55;;;;;;;1.00;1.00;;;12.80;55.50;;;;;;6251398;28;20243;-67
2022/05/17 12:15:24;;;;;;;1.20;1.20;;;13.00;56.00;;;;;;6233185;28;20247;-68
2022/05/17 12:18:40;;;;;;;3.10;1.42;;;12.90;55.60;;;;;;6250758;28;20235;-68
2022/05/17 12:21:51;;;;;;;1.00;1.00;;;12.80;55.90;;;;;;6233266;28;20224;-67
2022/05/17 12:25:05;;;;;;;1.20;1.20;;;12.80;54.90;;;;;;6250432;28;20251;-67
2022/05/17 12:28:23;;;;;;;1.10;1.10;;;13.00;55.60;;;;;;6250012;28;20691;-67
2022/05/17 12:31:28;;;;;;;1.23;1.10;;;13.10;54.50;;;;;;6250773;28;20212;-68
2022/05/17 12:34:33;;;;;;;1.20;1.20;;;12.90;55.00;;;;;;6250569;28;20235;-67
2022/05/17 12:37:44;;;;;;;1.20;1.10;;;13.10;56.10;;;;;;6250282;28;20232;-67
2022/05/17 12:44:17;;;;;;;1.13;1.13;;;12.80;54.80;;;;;;6250477;28;20240;-67
2022/05/17 12:47:27;;;;;;;1.30;1.02;;;12.80;55.70;;;;;;6249880;28;20626;-68
2022/05/17 12:50:42;;;;;;;0.88;0.88;;;12.90;55.70;;;;;;6250619;28;20211;-67
2022/05/17 12:53:51;;;;;;;0.90;0.90;;;13.00;55.40;;;;;;6250066;28;20247;-67
2022/05/17 12:57:17;;;;;;;0.90;0.90;;;12.80;56.50;;;;;;6250201;28;20209;-68
2022/05/17 13:00:29;;;;;;;0.90;0.90;;;13.20;56.10;;;;;;6249825;28;20209;-68
2022/05/17 13:03:34;;;;;;;0.80;0.80;;;13.10;54.50;;;;;;6250009;28;20252;-68
2022/05/17 13:06:42;;;;;;;0.90;0.90;;;13.10;54.30;;;;;;6250508;28;20207;-66
2022/05/17 13:09:58;;;;;;;1.30;1.00;;;13.20;53.50;;;;;;6249957;28;20233;-67
2022/05/17 13:13:16;;;;;;;0.90;0.90;;;13.30;53.80;;;;;;6249589;28;20237;-68
2022/05/17 13:16:26;;;;;;;0.90;0.90;;;13.50;53.20;;;;;;6248378;28;20205;-68
2022/05/17 13:19:31;;;;;;;0.85;0.85;;;13.60;53.20;;;;;;6250212;28;20231;-68
2022/05/17 13:22:42;;;;;;;1.63;1.52;;;13.70;52.60;;;;;;6249715;28;20303;-67
2022/05/17 13:25:50;;;;;;;0.98;0.98;;;13.70;53.00;;;;;;6252204;28;20209;-68
2022/05/17 13:28:58;;;;;;;1.10;1.10;;;13.60;53.70;;;;;;6252607;28;20236;-67
2022/05/17 13:32:07;;;;;;;1.15;1.15;;;13.70;53.00;;;;;;6251937;28;20219;-67
2022/05/17 13:35:19;;;;;;;1.80;1.10;;;13.90;52.30;;;;;;6247752;28;20703;-70
2022/05/17 13:38:33;;;;;;;0.90;0.90;;;15.00;50.60;;;;;;6248907;28;20235;-67
2022/05/17 13:41:41;;;;;;;0.90;0.90;;;14.90;48.60;;;;;;6249677;28;20311;-67
2022/05/17 13:44:56;;;;;;;1.05;1.05;;;15.00;47.90;;;;;;6247609;28;20251;-68
2022/05/17 13:48:02;;;;;;;1.30;0.88;;;14.60;49.50;;;;;;6249006;28;20691;-66
2022/05/17 13:51:17;;;;;;;0.80;0.80;;;14.20;50.10;;;;;;6249382;28;20205;-68
2022/05/17 13:54:33;;;;;;;0.93;0.93;;;13.90;50.40;;;;;;6248931;28;20258;-68
2022/05/17 13:57:50;;;;;;;0.80;0.80;;;13.90;50.70;;;;;;6248389;28;20228;-66
2022/05/17 14:01:11;;;;;;;1.00;1.00;;;14.00;50.90;;;;;;6232651;28;20201;-69
2022/05/17 14:04:40;;;;;;;0.77;0.77;;;14.00;51.10;;;;;;6248547;28;20247;-67
2022/05/17 14:11:49;;;;;;;1.55;0.95;;;14.00;51.40;;;;;;6248076;28;20240;-67
2022/05/17 14:11:50;;;;;;;0.82;0.82;;;14.00;50.70;;;;;;6248207;28;20207;-68
2022/05/17 14:14:59;;;;;;;1.10;1.00;;;14.00;50.40;;;;;;6250250;28;20228;-67
2022/05/17 14:18:14;;;;;;;0.93;0.93;;;13.60;50.70;;;;;;6249443;28;20240;-67
2022/05/17 14:21:20;;;;;;;0.93;0.93;;;13.70;51.60;;;;;;6248409;28;20205;-68
2022/05/17 14:24:26;;;;;;;0.80;0.80;;;13.80;50.60;;;;;;6247722;28;20582;-67
2022/05/17 14:27:32;;;;;;;1.05;0.90;;;13.90;49.90;;;;;;6247956;28;20232;-67
2022/05/17 14:30:39;;;;;;;0.90;0.90;;;13.90;50.00;;;;;;6248702;28;20563;-68
2022/05/17 14:33:46;;;;;;;0.90;0.90;;;14.10;49.80;;;;;;6248115;28;20709;-68
2022/05/17 14:36:53;;;;;;;0.88;0.88;;;14.20;50.00;;;;;;6248660;28;20224;-67
2022/05/17 14:39:58;;;;;;;0.90;0.90;;;14.20;49.60;;;;;;6247755;28;20603;-67
2022/05/17 14:43:04;;;;;;;1.02;1.02;;;14.70;49.20;;;;;;6247485;28;20239;-68
2022/05/17 14:46:12;;;;;;;0.93;0.93;;;15.70;47.20;;;;;;6247546;28;20205;-68
2022/05/17 14:49:26;;;;;;;1.00;1.00;;;16.70;44.40;;;;;;6247181;28;20254;-68
2022/05/17 14:52:32;;;;;;;1.33;0.90;;;17.00;43.70;;;;;;6246275;28;20233;-68
2022/05/17 14:55:39;;;;;;;0.90;0.90;;;17.10;43.20;;;;;;6247759;28;20311;-68
2022/05/17 14:58:46;;;;;;;2.20;1.00;;;15.80;44.00;;;;;;6247580;28;20338;-68
2022/05/17 15:01:53;;;;;;;0.80;0.80;;;15.40;45.30;;;;;;6247659;28;20216;-67
2022/05/17 15:05:00;;;;;;;1.08;0.93;;;15.10;46.70;;;;;;6247433;28;20585;-70
2022/05/17 15:08:09;;;;;;;2.95;0.93;;;14.60;47.20;;;;;;6247138;28;20260;-68
2022/05/17 15:11:15;;;;;;;1.02;0.82;;;14.60;47.90;;;;;;6247478;28;20205;-69
2022/05/17 15:14:21;;;;;;;1.38;1.05;;;14.50;47.90;;;;;;6247138;28;20243;-68
2022/05/17 15:17:28;;;;;;;0.88;0.88;;;14.30;48.10;;;;;;6247244;28;20207;-67
2022/05/17 15:20:35;;;;;;;0.80;0.80;;;14.30;48.70;;;;;;6247093;28;20204;-67
2022/05/17 15:23:42;;;;;;;1.65;0.90;;;14.20;47.90;;;;;;6246678;28;20255;-68
2022/05/17 15:26:47;;;;;;;2.38;1.08;;;14.10;48.60;;;;;;6247469;28;20221;-68
2022/05/17 15:29:53;;;;;;;2.25;0.75;;;14.20;48.80;;;;;;6246921;28;20569;-67
2022/05/17 15:32:59;;;;;;;1.48;1.20;;;14.20;49.00;;;;;;6246296;28;20236;-69
2022/05/17 15:36:07;;;;;;;4.22;1.05;;;14.20;49.50;;;;;;6247552;28;20205;-67
2022/05/17 15:39:13;;;;;;;1.85;0.98;;;14.20;48.70;;;;;;6247099;28;20255;-68
2022/05/17 15:42:19;;;;;;;1.10;1.10;;;14.10;48.30;;;;;;6249123;28;20239;-67
2022/05/17 15:45:24;;;;;;;1.00;1.00;;;14.00;48.30;;;;;;6250085;28;20241;-69
2022/05/17 15:55:37;;;;;;;5.15;1.10;;;13.90;47.90;;;;;;6194733;28;20225;-67
2022/05/17 15:58:45;;;;;;;1.00;1.00;;;14.00;48.00;;;;;;6258385;28;20312;-68
2022/05/17 16:01:55;;;;;;;1.10;1.10;;;14.00;48.10;;;;;;6248459;28;20219;-69
2022/05/17 16:05:04;;;;;;;0.98;0.98;;;14.00;48.50;;;;;;6247390;28;20320;-68
2022/05/17 16:08:16;;;;;;;0.90;0.90;;;13.90;47.50;;;;;;6246911;28;20232;-68
2022/05/17 16:14:44;;;;;;;0.95;0.95;;;13.80;48.20;;;;;;6246603;28;20235;-68
2022/05/17 16:17:57;;;;;;;0.80;0.80;;;13.70;47.80;;;;;;6246425;28;20538;-67
2022/05/17 16:21:05;;;;;;;1.15;1.05;;;13.70;48.60;;;;;;6247548;28;20555;-69
2022/05/17 16:24:12;;;;;;;1.00;1.00;;;13.60;48.20;;;;;;6246675;28;20605;-68
2022/05/17 16:27:19;;;;;;;1.27;1.27;;;13.60;48.70;;;;;;6246312;28;20223;-68
2022/05/17 16:30:32;;;;;;;1.00;1.00;;;13.60;49.10;;;;;;6246994;28;20220;-68
2022/05/17 16:33:39;;;;;;;1.02;1.02;;;13.70;48.60;;;;;;6246124;28;20236;-68
2022/05/17 16:36:45;;;;;;;0.73;0.73;;;13.60;48.40;;;;;;6246807;28;20201;-68
2022/05/17 16:39:52;;;;;;;1.40;1.40;;;13.60;48.30;;;;;;6246614;28;20231;-67
2022/05/17 16:43:00;;;;;;;1.27;1.23;;;13.50;48.90;;;;;;6246290;28;20259;-67
2022/05/17 16:46:06;;;;;;;0.82;0.82;;;13.40;48.60;;;;;;6246787;28;20235;-66
2022/05/17 16:49:12;;;;;;;2.10;1.00;;;13.30;48.30;;;;;;6246373;28;20728;-67
2022/05/17 16:52:18;;;;;;;1.10;1.10;;;13.30;48.30;;;;;;6249159;28;20204;-68
2022/05/17 16:55:25;;;;;;;1.77;1.00;;;13.30;49.00;;;;;;6251545;28;20239;-67